sensor_id;sensor_type;location;lat;lon;timestamp;temperature;humidity
33095;DHT22;19459;53.044;8.910;2023-11-18T00:00:31;1.80;99.90
33095;DHT22;19459;53.044;8.910;2023-11-18T00:02:58;1.80;99.90
33095;DHT22;19459;53.044;8.910;2023-11-18T00:05:24;1.70;99.90
33095;DHT22;19459;53.044;8.910;2023-11-18T00:07:50;1.70;99.90
33095;DHT22;19459;53.044;8.910;2023-11-18T00:10:16;1.60;99.90
33095;DHT22;19459;53.044;8.910;2023-11-18T00:12:42;1.60;99.90
33095;DHT22;19459;53.044;8.910;2023-11-18T00:15:09;1.60;99.90
33095;DHT22;19459;53.044;8.910;2023-11-18T00:17:37;1.70;99.90
33095;DHT22;19459;53.044;8.910;2023-11-18T00:20:04;1.60;99.90
33095;DHT22;19459;53.044;8.910;2023-11-18T00:22:37;1.60;99.90
33095;DHT22;19459;53.044;8.910;2023-11-18T00:25:04;1.60;99.90
33095;DHT22;19459;53.044;8.910;2023-11-18T00:27:31;1.60;99.90
33095;DHT22;19459;53.044;8.910;2023-11-18T00:29:57;1.60;99.90
33095;DHT22;19459;53.044;8.910;2023-11-18T00:32:22;1.50;99.90
33095;DHT22;19459;53.044;8.910;2023-11-18T00:34:48;1.50;99.90
33095;DHT22;19459;53.044;8.910;2023-11-18T00:37:14;1.40;99.90
33095;DHT22;19459;53.044;8.910;2023-11-18T00:39:40;1.40;99.90
33095;DHT22;19459;53.044;8.910;2023-11-18T00:42:06;1.40;99.90
33095;DHT22;19459;53.044;8.910;2023-11-18T00:44:32;1.40;99.90
33095;DHT22;19459;53.044;8.910;2023-11-18T00:46:58;1.40;99.90
33095;DHT22;19459;53.044;8.910;2023-11-18T00:49:23;1.40;99.90
33095;DHT22;19459;53.044;8.910;2023-11-18T00:51:51;1.40;99.90
33095;DHT22;19459;53.044;8.910;2023-11-18T00:54:17;1.40;99.90
33095;DHT22;19459;53.044;8.910;2023-11-18T00:56:42;1.40;99.90
33095;DHT22;19459;53.044;8.910;2023-11-18T00:59:08;1.40;99.90
33095;DHT22;19459;53.044;8.910;2023-11-18T01:01:34;1.30;99.90
33095;DHT22;19459;53.044;8.910;2023-11-18T01:04:00;1.40;99.90
33095;DHT22;19459;53.044;8.910;2023-11-18T01:06:26;1.40;99.90
33095;DHT22;19459;53.044;8.910;2023-11-18T01:08:52;1.50;99.90
33095;DHT22;19459;53.044;8.910;2023-11-18T01:11:19;1.50;99.90
33095;DHT22;19459;53.044;8.910;2023-11-18T01:13:46;1.50;99.90
33095;DHT22;19459;53.044;8.910;2023-11-18T01:16:12;1.50;99.90
33095;DHT22;19459;53.044;8.910;2023-11-18T01:18:40;1.60;99.90
33095;DHT22;19459;53.044;8.910;2023-11-18T01:21:06;1.60;99.90
33095;DHT22;19459;53.044;8.910;2023-11-18T01:23:35;1.70;99.90
33095;DHT22;19459;53.044;8.910;2023-11-18T01:26:02;1.70;99.90
33095;DHT22;19459;53.044;8.910;2023-11-18T01:28:34;1.80;99.90
33095;DHT22;19459;53.044;8.910;2023-11-18T01:31:06;1.90;99.90
33095;DHT22;19459;53.044;8.910;2023-11-18T01:33:37;1.90;99.90
33095;DHT22;19459;53.044;8.910;2023-11-18T01:36:06;1.90;99.90
33095;DHT22;19459;53.044;8.910;2023-11-18T01:38:36;2.00;99.90
33095;DHT22;19459;53.044;8.910;2023-11-18T01:41:05;2.00;99.90
33095;DHT22;19459;53.044;8.910;2023-11-18T01:43:32;2.10;99.90
33095;DHT22;19459;53.044;8.910;2023-11-18T01:45:59;2.10;99.90
33095;DHT22;19459;53.044;8.910;2023-11-18T01:48:28;2.20;99.90
33095;DHT22;19459;53.044;8.910;2023-11-18T01:50:57;2.20;99.90
33095;DHT22;19459;53.044;8.910;2023-11-18T01:53:24;2.20;99.90
33095;DHT22;19459;53.044;8.910;2023-11-18T01:55:51;2.30;99.90
33095;DHT22;19459;53.044;8.910;2023-11-18T01:58:17;2.30;99.90
33095;DHT22;19459;53.044;8.910;2023-11-18T02:00:45;2.40;99.90
33095;DHT22;19459;53.044;8.910;2023-11-18T02:03:15;2.40;99.90
33095;DHT22;19459;53.044;8.910;2023-11-18T02:05:42;2.50;99.90
33095;DHT22;19459;53.044;8.910;2023-11-18T02:08:10;2.50;99.90
33095;DHT22;19459;53.044;8.910;2023-11-18T02:10:47;2.50;99.90
33095;DHT22;19459;53.044;8.910;2023-11-18T02:13:31;2.50;99.90
33095;DHT22;19459;53.044;8.910;2023-11-18T02:15:59;2.60;99.90
33095;DHT22;19459;53.044;8.910;2023-11-18T02:18:28;2.60;99.90
33095;DHT22;19459;53.044;8.910;2023-11-18T02:20:55;2.60;99.90
33095;DHT22;19459;53.044;8.910;2023-11-18T02:23:28;2.70;99.90
33095;DHT22;19459;53.044;8.910;2023-11-18T02:25:54;2.70;99.90
33095;DHT22;19459;53.044;8.910;2023-11-18T02:28:21;2.70;99.90
33095;DHT22;19459;53.044;8.910;2023-11-18T02:30:48;2.70;99.90
33095;DHT22;19459;53.044;8.910;2023-11-18T02:33:24;2.80;99.90
33095;DHT22;19459;53.044;8.910;2023-11-18T02:36:29;2.70;99.90
33095;DHT22;19459;53.044;8.910;2023-11-18T02:39:21;2.80;99.90
33095;DHT22;19459;53.044;8.910;2023-11-18T02:41:52;2.80;99.90
33095;DHT22;19459;53.044;8.910;2023-11-18T02:44:18;2.80;99.90
33095;DHT22;19459;53.044;8.910;2023-11-18T02:46:46;2.80;99.90
33095;DHT22;19459;53.044;8.910;2023-11-18T02:49:11;2.80;99.90
33095;DHT22;19459;53.044;8.910;2023-11-18T02:51:38;2.80;99.90
33095;DHT22;19459;53.044;8.910;2023-11-18T02:54:08;2.80;99.90
33095;DHT22;19459;53.044;8.910;2023-11-18T02:56:37;2.80;99.90
33095;DHT22;19459;53.044;8.910;2023-11-18T02:59:03;2.70;99.90
33095;DHT22;19459;53.044;8.910;2023-11-18T03:01:31;2.70;99.90
33095;DHT22;19459;53.044;8.910;2023-11-18T03:03:59;2.70;99.90
33095;DHT22;19459;53.044;8.910;2023-11-18T03:06:25;2.80;99.90
33095;DHT22;19459;53.044;8.910;2023-11-18T03:08:52;2.80;99.90
33095;DHT22;19459;53.044;8.910;2023-11-18T03:11:19;2.80;99.90
33095;DHT22;19459;53.044;8.910;2023-11-18T03:13:45;2.80;99.90
33095;DHT22;19459;53.044;8.910;2023-11-18T03:16:13;2.90;99.90
33095;DHT22;19459;53.044;8.910;2023-11-18T03:18:40;2.90;99.90
33095;DHT22;19459;53.044;8.910;2023-11-18T03:21:11;2.90;99.90
33095;DHT22;19459;53.044;8.910;2023-11-18T03:23:41;3.00;99.90
33095;DHT22;19459;53.044;8.910;2023-11-18T03:26:08;3.00;99.90
33095;DHT22;19459;53.044;8.910;2023-11-18T03:28:36;3.00;99.90
33095;DHT22;19459;53.044;8.910;2023-11-18T03:31:06;3.10;99.90
33095;DHT22;19459;53.044;8.910;2023-11-18T03:33:32;3.10;99.90
33095;DHT22;19459;53.044;8.910;2023-11-18T03:35:58;3.00;99.90
33095;DHT22;19459;53.044;8.910;2023-11-18T03:38:24;3.00;99.90
33095;DHT22;19459;53.044;8.910;2023-11-18T03:40:50;3.10;99.90
33095;DHT22;19459;53.044;8.910;2023-11-18T03:43:18;3.10;99.90
33095;DHT22;19459;53.044;8.910;2023-11-18T03:45:43;3.10;99.90
33095;DHT22;19459;53.044;8.910;2023-11-18T03:48:09;3.10;99.90
33095;DHT22;19459;53.044;8.910;2023-11-18T03:50:40;3.20;99.90
33095;DHT22;19459;53.044;8.910;2023-11-18T03:53:06;3.20;99.90
33095;DHT22;19459;53.044;8.910;2023-11-18T03:55:32;3.20;99.90
33095;DHT22;19459;53.044;8.910;2023-11-18T03:57:59;3.20;99.90
33095;DHT22;19459;53.044;8.910;2023-11-18T04:00:24;3.20;99.90
33095;DHT22;19459;53.044;8.910;2023-11-18T04:02:55;3.30;99.90
33095;DHT22;19459;53.044;8.910;2023-11-18T04:05:22;3.30;99.90
33095;DHT22;19459;53.044;8.910;2023-11-18T04:07:48;3.40;99.90
33095;DHT22;19459;53.044;8.910;2023-11-18T04:10:13;3.40;99.90
33095;DHT22;19459;53.044;8.910;2023-11-18T04:12:40;3.40;99.90
33095;DHT22;19459;53.044;8.910;2023-11-18T04:15:06;3.40;99.90
33095;DHT22;19459;53.044;8.910;2023-11-18T04:17:33;3.30;99.90
33095;DHT22;19459;53.044;8.910;2023-11-18T04:19:59;3.20;99.90
33095;DHT22;19459;53.044;8.910;2023-11-18T04:22:24;3.20;99.90
33095;DHT22;19459;53.044;8.910;2023-11-18T04:24:50;3.20;99.90
33095;DHT22;19459;53.044;8.910;2023-11-18T04:27:16;3.20;99.90
33095;DHT22;19459;53.044;8.910;2023-11-18T04:29:42;3.20;99.90
33095;DHT22;19459;53.044;8.910;2023-11-18T04:32:08;3.20;99.90
33095;DHT22;19459;53.044;8.910;2023-11-18T04:34:37;3.20;99.90
33095;DHT22;19459;53.044;8.910;2023-11-18T04:37:04;3.30;99.90
33095;DHT22;19459;53.044;8.910;2023-11-18T04:39:32;3.30;99.90
33095;DHT22;19459;53.044;8.910;2023-11-18T04:41:58;3.20;99.90
33095;DHT22;19459;53.044;8.910;2023-11-18T04:44:24;3.20;99.90
33095;DHT22;19459;53.044;8.910;2023-11-18T04:46:49;3.20;99.90
33095;DHT22;19459;53.044;8.910;2023-11-18T04:49:15;3.10;99.90
33095;DHT22;19459;53.044;8.910;2023-11-18T04:51:41;3.20;99.90
33095;DHT22;19459;53.044;8.910;2023-11-18T04:54:07;3.20;99.90
33095;DHT22;19459;53.044;8.910;2023-11-18T04:56:36;3.30;99.90
33095;DHT22;19459;53.044;8.910;2023-11-18T04:59:05;3.30;99.90
33095;DHT22;19459;53.044;8.910;2023-11-18T05:01:34;3.30;99.90
33095;DHT22;19459;53.044;8.910;2023-11-18T05:04:00;3.40;99.90
33095;DHT22;19459;53.044;8.910;2023-11-18T05:06:26;3.40;99.90
33095;DHT22;19459;53.044;8.910;2023-11-18T05:08:52;3.40;99.90
33095;DHT22;19459;53.044;8.910;2023-11-18T05:11:18;3.50;99.90
33095;DHT22;19459;53.044;8.910;2023-11-18T05:13:44;3.50;99.90
33095;DHT22;19459;53.044;8.910;2023-11-18T05:16:09;3.50;99.90
33095;DHT22;19459;53.044;8.910;2023-11-18T05:18:39;3.60;99.90
33095;DHT22;19459;53.044;8.910;2023-11-18T05:21:06;3.60;99.90
33095;DHT22;19459;53.044;8.910;2023-11-18T05:23:34;3.60;99.90
33095;DHT22;19459;53.044;8.910;2023-11-18T05:26:01;3.60;99.90
33095;DHT22;19459;53.044;8.910;2023-11-18T05:28:30;3.70;99.90
33095;DHT22;19459;53.044;8.910;2023-11-18T05:30:56;3.70;99.90
33095;DHT22;19459;53.044;8.910;2023-11-18T05:33:23;3.70;99.90
33095;DHT22;19459;53.044;8.910;2023-11-18T05:35:50;3.70;99.90
33095;DHT22;19459;53.044;8.910;2023-11-18T05:38:16;3.70;99.90
33095;DHT22;19459;53.044;8.910;2023-11-18T05:40:47;3.70;99.90
33095;DHT22;19459;53.044;8.910;2023-11-18T05:43:24;3.70;99.90
33095;DHT22;19459;53.044;8.910;2023-11-18T05:46:06;3.70;99.90
33095;DHT22;19459;53.044;8.910;2023-11-18T05:48:43;3.70;99.90
33095;DHT22;19459;53.044;8.910;2023-11-18T05:51:10;3.60;99.90
33095;DHT22;19459;53.044;8.910;2023-11-18T05:53:43;3.70;99.90
33095;DHT22;19459;53.044;8.910;2023-11-18T05:56:15;3.60;99.90
33095;DHT22;19459;53.044;8.910;2023-11-18T05:58:44;3.70;99.90
33095;DHT22;19459;53.044;8.910;2023-11-18T06:01:11;3.70;99.90
33095;DHT22;19459;53.044;8.910;2023-11-18T06:03:38;3.70;99.90
33095;DHT22;19459;53.044;8.910;2023-11-18T06:06:09;3.70;99.90
33095;DHT22;19459;53.044;8.910;2023-11-18T06:08:37;3.70;99.90
33095;DHT22;19459;53.044;8.910;2023-11-18T06:11:13;3.70;99.90
33095;DHT22;19459;53.044;8.910;2023-11-18T06:13:50;3.70;99.90
33095;DHT22;19459;53.044;8.910;2023-11-18T06:16:20;3.70;99.90
33095;DHT22;19459;53.044;8.910;2023-11-18T06:18:49;3.70;99.90
33095;DHT22;19459;53.044;8.910;2023-11-18T06:21:20;3.80;99.90
33095;DHT22;19459;53.044;8.910;2023-11-18T06:23:50;3.80;99.90
33095;DHT22;19459;53.044;8.910;2023-11-18T06:26:16;3.80;99.90
33095;DHT22;19459;53.044;8.910;2023-11-18T06:28:44;3.80;99.90
33095;DHT22;19459;53.044;8.910;2023-11-18T06:31:11;3.80;99.90
33095;DHT22;19459;53.044;8.910;2023-11-18T06:33:41;3.90;99.90
33095;DHT22;19459;53.044;8.910;2023-11-18T06:36:09;3.90;99.90
33095;DHT22;19459;53.044;8.910;2023-11-18T06:38:49;3.90;99.90
33095;DHT22;19459;53.044;8.910;2023-11-18T06:41:20;3.90;99.90
33095;DHT22;19459;53.044;8.910;2023-11-18T06:43:48;3.90;99.90
33095;DHT22;19459;53.044;8.910;2023-11-18T06:46:35;4.00;99.90
33095;DHT22;19459;53.044;8.910;2023-11-18T06:49:05;4.00;99.90
33095;DHT22;19459;53.044;8.910;2023-11-18T06:51:34;4.00;99.90
33095;DHT22;19459;53.044;8.910;2023-11-18T06:54:01;4.00;99.90
33095;DHT22;19459;53.044;8.910;2023-11-18T06:56:42;4.00;99.90
33095;DHT22;19459;53.044;8.910;2023-11-18T06:59:09;4.00;99.90
33095;DHT22;19459;53.044;8.910;2023-11-18T07:01:41;4.00;99.90
33095;DHT22;19459;53.044;8.910;2023-11-18T07:04:10;4.10;99.90
33095;DHT22;19459;53.044;8.910;2023-11-18T07:06:36;4.10;99.90
33095;DHT22;19459;53.044;8.910;2023-11-18T07:09:08;4.10;99.90
33095;DHT22;19459;53.044;8.910;2023-11-18T07:11:38;4.10;99.90
33095;DHT22;19459;53.044;8.910;2023-11-18T07:14:08;4.10;99.90
33095;DHT22;19459;53.044;8.910;2023-11-18T07:16:35;4.10;99.90
33095;DHT22;19459;53.044;8.910;2023-11-18T07:19:01;4.10;99.90
33095;DHT22;19459;53.044;8.910;2023-11-18T07:21:29;4.10;99.90
33095;DHT22;19459;53.044;8.910;2023-11-18T07:23:55;4.10;99.90
33095;DHT22;19459;53.044;8.910;2023-11-18T07:26:22;4.10;99.90
33095;DHT22;19459;53.044;8.910;2023-11-18T07:28:49;4.10;99.90
33095;DHT22;19459;53.044;8.910;2023-11-18T07:31:15;4.10;99.90
33095;DHT22;19459;53.044;8.910;2023-11-18T07:33:46;4.10;99.90
33095;DHT22;19459;53.044;8.910;2023-11-18T07:36:16;4.20;99.90
33095;DHT22;19459;53.044;8.910;2023-11-18T07:38:45;4.20;99.90
33095;DHT22;19459;53.044;8.910;2023-11-18T07:41:11;4.20;99.90
33095;DHT22;19459;53.044;8.910;2023-11-18T07:43:52;4.20;99.90
33095;DHT22;19459;53.044;8.910;2023-11-18T07:46:20;4.20;99.90
33095;DHT22;19459;53.044;8.910;2023-11-18T07:48:50;4.20;99.90
33095;DHT22;19459;53.044;8.910;2023-11-18T07:51:20;4.20;99.90
33095;DHT22;19459;53.044;8.910;2023-11-18T07:53:51;4.20;99.90
33095;DHT22;19459;53.044;8.910;2023-11-18T07:56:18;4.20;99.90
33095;DHT22;19459;53.044;8.910;2023-11-18T07:58:44;4.20;99.90
33095;DHT22;19459;53.044;8.910;2023-11-18T08:01:13;4.20;99.90
33095;DHT22;19459;53.044;8.910;2023-11-18T08:03:47;4.30;99.90
33095;DHT22;19459;53.044;8.910;2023-11-18T08:06:18;4.30;99.90
33095;DHT22;19459;53.044;8.910;2023-11-18T08:08:44;4.30;99.90
33095;DHT22;19459;53.044;8.910;2023-11-18T08:11:12;4.30;99.90
33095;DHT22;19459;53.044;8.910;2023-11-18T08:13:38;4.40;99.90
33095;DHT22;19459;53.044;8.910;2023-11-18T08:16:05;4.40;99.90
33095;DHT22;19459;53.044;8.910;2023-11-18T08:18:34;4.40;99.90
33095;DHT22;19459;53.044;8.910;2023-11-18T08:21:01;4.40;99.90
33095;DHT22;19459;53.044;8.910;2023-11-18T08:23:27;4.40;99.90
33095;DHT22;19459;53.044;8.910;2023-11-18T08:25:57;4.50;99.90
33095;DHT22;19459;53.044;8.910;2023-11-18T08:28:23;4.50;99.90
33095;DHT22;19459;53.044;8.910;2023-11-18T08:30:57;4.50;99.90
33095;DHT22;19459;53.044;8.910;2023-11-18T08:33:23;4.60;99.90
33095;DHT22;19459;53.044;8.910;2023-11-18T08:35:54;4.50;99.90
33095;DHT22;19459;53.044;8.910;2023-11-18T08:38:19;4.60;99.90
33095;DHT22;19459;53.044;8.910;2023-11-18T08:40:45;4.60;99.90
33095;DHT22;19459;53.044;8.910;2023-11-18T08:43:13;4.60;99.90
33095;DHT22;19459;53.044;8.910;2023-11-18T08:45:41;4.60;99.90
33095;DHT22;19459;53.044;8.910;2023-11-18T08:48:07;4.60;99.90
33095;DHT22;19459;53.044;8.910;2023-11-18T08:50:35;4.60;99.90
33095;DHT22;19459;53.044;8.910;2023-11-18T08:53:01;4.60;99.90
33095;DHT22;19459;53.044;8.910;2023-11-18T08:55:31;4.60;99.90
33095;DHT22;19459;53.044;8.910;2023-11-18T08:58:08;4.60;99.90
33095;DHT22;19459;53.044;8.910;2023-11-18T09:00:58;4.60;99.90
33095;DHT22;19459;53.044;8.910;2023-11-18T09:03:29;4.70;99.90
33095;DHT22;19459;53.044;8.910;2023-11-18T09:06:02;4.70;99.90
33095;DHT22;19459;53.044;8.910;2023-11-18T09:08:35;4.60;99.90
33095;DHT22;19459;53.044;8.910;2023-11-18T09:11:07;4.60;99.90
33095;DHT22;19459;53.044;8.910;2023-11-18T09:13:36;4.60;99.90
33095;DHT22;19459;53.044;8.910;2023-11-18T09:16:07;4.70;99.90
33095;DHT22;19459;53.044;8.910;2023-11-18T09:18:37;4.80;99.90
33095;DHT22;19459;53.044;8.910;2023-11-18T09:21:06;4.80;99.90
33095;DHT22;19459;53.044;8.910;2023-11-18T09:23:33;4.90;99.90
33095;DHT22;19459;53.044;8.910;2023-11-18T09:26:00;5.00;99.90
33095;DHT22;19459;53.044;8.910;2023-11-18T09:28:28;5.00;99.90
33095;DHT22;19459;53.044;8.910;2023-11-18T09:30:55;5.00;99.90
33095;DHT22;19459;53.044;8.910;2023-11-18T09:33:26;5.00;99.90
33095;DHT22;19459;53.044;8.910;2023-11-18T09:36:04;5.00;99.90
33095;DHT22;19459;53.044;8.910;2023-11-18T09:38:35;5.10;99.90
33095;DHT22;19459;53.044;8.910;2023-11-18T09:41:03;5.10;99.90
33095;DHT22;19459;53.044;8.910;2023-11-18T09:43:35;5.20;99.90
33095;DHT22;19459;53.044;8.910;2023-11-18T09:46:13;5.20;99.90
33095;DHT22;19459;53.044;8.910;2023-11-18T09:48:54;5.30;99.90
33095;DHT22;19459;53.044;8.910;2023-11-18T09:51:41;5.30;99.90
33095;DHT22;19459;53.044;8.910;2023-11-18T09:57:44;5.30;99.90
33095;DHT22;19459;53.044;8.910;2023-11-18T10:00:22;5.30;99.90
33095;DHT22;19459;53.044;8.910;2023-11-18T10:02:58;5.20;99.90
33095;DHT22;19459;53.044;8.910;2023-11-18T10:05:27;5.20;99.90
33095;DHT22;19459;53.044;8.910;2023-11-18T10:07:55;5.10;99.90
33095;DHT22;19459;53.044;8.910;2023-11-18T10:10:24;5.20;99.90
33095;DHT22;19459;53.044;8.910;2023-11-18T10:12:52;5.30;99.90
33095;DHT22;19459;53.044;8.910;2023-11-18T10:15:20;5.40;99.90
33095;DHT22;19459;53.044;8.910;2023-11-18T10:17:51;5.40;99.90
33095;DHT22;19459;53.044;8.910;2023-11-18T10:20:47;5.40;99.90
33095;DHT22;19459;53.044;8.910;2023-11-18T10:23:15;5.40;99.90
33095;DHT22;19459;53.044;8.910;2023-11-18T10:25:54;5.40;99.90
33095;DHT22;19459;53.044;8.910;2023-11-18T10:28:30;5.40;99.90
33095;DHT22;19459;53.044;8.910;2023-11-18T10:31:04;5.40;99.90
33095;DHT22;19459;53.044;8.910;2023-11-18T10:33:35;5.40;99.90
33095;DHT22;19459;53.044;8.910;2023-11-18T10:36:04;5.50;99.90
33095;DHT22;19459;53.044;8.910;2023-11-18T10:38:38;5.60;99.90
33095;DHT22;19459;53.044;8.910;2023-11-18T10:41:08;5.70;99.90
33095;DHT22;19459;53.044;8.910;2023-11-18T10:43:35;5.70;99.90
33095;DHT22;19459;53.044;8.910;2023-11-18T10:46:08;5.80;99.90
33095;DHT22;19459;53.044;8.910;2023-11-18T10:48:49;5.80;99.90
33095;DHT22;19459;53.044;8.910;2023-11-18T10:51:17;5.90;99.90
33095;DHT22;19459;53.044;8.910;2023-11-18T10:53:47;5.90;99.90
33095;DHT22;19459;53.044;8.910;2023-11-18T10:56:29;5.90;99.90
33095;DHT22;19459;53.044;8.910;2023-11-18T10:58:56;6.00;99.90
33095;DHT22;19459;53.044;8.910;2023-11-18T11:01:32;6.10;99.90
33095;DHT22;19459;53.044;8.910;2023-11-18T11:04:00;6.10;99.90
33095;DHT22;19459;53.044;8.910;2023-11-18T11:06:30;6.20;99.90
33095;DHT22;19459;53.044;8.910;2023-11-18T11:08:58;6.20;99.90
33095;DHT22;19459;53.044;8.910;2023-11-18T11:11:25;6.30;99.90
33095;DHT22;19459;53.044;8.910;2023-11-18T11:13:57;6.40;99.90
33095;DHT22;19459;53.044;8.910;2023-11-18T11:16:32;6.50;99.90
33095;DHT22;19459;53.044;8.910;2023-11-18T11:19:04;6.50;99.90
33095;DHT22;19459;53.044;8.910;2023-11-18T11:21:43;6.50;99.90
33095;DHT22;19459;53.044;8.910;2023-11-18T11:25:03;6.50;99.90
33095;DHT22;19459;53.044;8.910;2023-11-18T11:27:46;6.50;99.90
33095;DHT22;19459;53.044;8.910;2023-11-18T11:32:51;6.60;99.90
33095;DHT22;19459;53.044;8.910;2023-11-18T11:35:30;6.70;99.90
33095;DHT22;19459;53.044;8.910;2023-11-18T11:37:56;6.60;99.90
33095;DHT22;19459;53.044;8.910;2023-11-18T11:40:36;6.60;99.90
33095;DHT22;19459;53.044;8.910;2023-11-18T11:43:06;6.60;99.90
33095;DHT22;19459;53.044;8.910;2023-11-18T11:45:36;6.60;99.90
33095;DHT22;19459;53.044;8.910;2023-11-18T11:48:06;6.70;99.90
33095;DHT22;19459;53.044;8.910;2023-11-18T11:56:44;6.70;99.90
33095;DHT22;19459;53.044;8.910;2023-11-18T12:00:03;6.70;99.90
33095;DHT22;19459;53.044;8.910;2023-11-18T12:02:10;6.80;99.90
33095;DHT22;19459;53.044;8.910;2023-11-18T12:04:39;6.80;99.90
33095;DHT22;19459;53.044;8.910;2023-11-18T12:07:09;6.80;99.90
33095;DHT22;19459;53.044;8.910;2023-11-18T12:09:36;6.70;99.90
33095;DHT22;19459;53.044;8.910;2023-11-18T12:12:05;6.70;99.90
33095;DHT22;19459;53.044;8.910;2023-11-18T12:14:51;6.70;99.90
33095;DHT22;19459;53.044;8.910;2023-11-18T12:17:18;6.80;99.90
33095;DHT22;19459;53.044;8.910;2023-11-18T12:19:48;6.80;99.90
33095;DHT22;19459;53.044;8.910;2023-11-18T12:22:21;6.80;99.90
33095;DHT22;19459;53.044;8.910;2023-11-18T12:27:42;6.80;99.90
33095;DHT22;19459;53.044;8.910;2023-11-18T12:32:59;6.80;99.90
33095;DHT22;19459;53.044;8.910;2023-11-18T12:41:41;6.70;99.90
33095;DHT22;19459;53.044;8.910;2023-11-18T12:47:01;6.70;99.90
33095;DHT22;19459;53.044;8.910;2023-11-18T12:49:43;6.70;99.90
33095;DHT22;19459;53.044;8.910;2023-11-18T12:52:11;6.70;99.90
33095;DHT22;19459;53.044;8.910;2023-11-18T12:54:40;6.70;99.90
33095;DHT22;19459;53.044;8.910;2023-11-18T12:57:10;6.70;99.90
33095;DHT22;19459;53.044;8.910;2023-11-18T12:59:40;6.70;99.90
33095;DHT22;19459;53.044;8.910;2023-11-18T13:02:10;6.70;99.90
33095;DHT22;19459;53.044;8.910;2023-11-18T13:04:45;6.70;99.90
33095;DHT22;19459;53.044;8.910;2023-11-18T13:07:16;6.70;99.90
33095;DHT22;19459;53.044;8.910;2023-11-18T13:09:43;6.70;99.90
33095;DHT22;19459;53.044;8.910;2023-11-18T13:12:11;6.70;99.90
33095;DHT22;19459;53.044;8.910;2023-11-18T13:14:41;6.70;99.90
33095;DHT22;19459;53.044;8.910;2023-11-18T13:17:12;6.70;99.90
33095;DHT22;19459;53.044;8.910;2023-11-18T13:19:41;6.70;99.90
33095;DHT22;19459;53.044;8.910;2023-11-18T13:22:09;6.70;99.90
33095;DHT22;19459;53.044;8.910;2023-11-18T13:24:38;6.70;99.90
33095;DHT22;19459;53.044;8.910;2023-11-18T13:27:06;6.70;99.90
33095;DHT22;19459;53.044;8.910;2023-11-18T13:29:35;6.60;99.90
33095;DHT22;19459;53.044;8.910;2023-11-18T13:32:05;6.60;99.90
33095;DHT22;19459;53.044;8.910;2023-11-18T13:34:33;6.60;99.90
33095;DHT22;19459;53.044;8.910;2023-11-18T13:37:06;6.70;99.90
33095;DHT22;19459;53.044;8.910;2023-11-18T13:39:33;6.70;99.90
33095;DHT22;19459;53.044;8.910;2023-11-18T13:42:24;6.60;99.90
33095;DHT22;19459;53.044;8.910;2023-11-18T13:44:53;6.70;99.90
33095;DHT22;19459;53.044;8.910;2023-11-18T13:47:26;6.70;99.90
33095;DHT22;19459;53.044;8.910;2023-11-18T13:49:57;6.60;99.90
33095;DHT22;19459;53.044;8.910;2023-11-18T13:52:26;6.60;99.90
33095;DHT22;19459;53.044;8.910;2023-11-18T13:54:52;6.60;99.90
33095;DHT22;19459;53.044;8.910;2023-11-18T13:57:23;6.60;99.90
33095;DHT22;19459;53.044;8.910;2023-11-18T13:59:50;6.60;99.90
33095;DHT22;19459;53.044;8.910;2023-11-18T14:02:16;6.60;99.90
33095;DHT22;19459;53.044;8.910;2023-11-18T14:04:42;6.70;99.90
33095;DHT22;19459;53.044;8.910;2023-11-18T14:07:09;6.60;99.90
33095;DHT22;19459;53.044;8.910;2023-11-18T14:09:41;6.60;99.90
33095;DHT22;19459;53.044;8.910;2023-11-18T14:12:08;6.60;99.90
33095;DHT22;19459;53.044;8.910;2023-11-18T14:14:34;6.60;99.90
33095;DHT22;19459;53.044;8.910;2023-11-18T14:17:05;6.60;99.90
33095;DHT22;19459;53.044;8.910;2023-11-18T14:19:36;6.60;99.90
33095;DHT22;19459;53.044;8.910;2023-11-18T14:22:06;6.60;99.90
33095;DHT22;19459;53.044;8.910;2023-11-18T14:24:33;6.60;99.90
33095;DHT22;19459;53.044;8.910;2023-11-18T14:26:59;6.60;99.90
33095;DHT22;19459;53.044;8.910;2023-11-18T14:29:25;6.60;99.90
33095;DHT22;19459;53.044;8.910;2023-11-18T14:31:53;6.70;99.90
33095;DHT22;19459;53.044;8.910;2023-11-18T14:34:19;6.60;99.90
33095;DHT22;19459;53.044;8.910;2023-11-18T14:36:45;6.70;99.90
33095;DHT22;19459;53.044;8.910;2023-11-18T14:39:11;6.60;99.90
33095;DHT22;19459;53.044;8.910;2023-11-18T14:41:40;6.60;99.90
33095;DHT22;19459;53.044;8.910;2023-11-18T14:44:06;6.60;99.90
33095;DHT22;19459;53.044;8.910;2023-11-18T14:46:35;6.60;99.90
33095;DHT22;19459;53.044;8.910;2023-11-18T14:49:04;6.60;99.90
33095;DHT22;19459;53.044;8.910;2023-11-18T14:51:31;6.50;99.90
33095;DHT22;19459;53.044;8.910;2023-11-18T14:53:57;6.50;99.90
33095;DHT22;19459;53.044;8.910;2023-11-18T14:56:23;6.40;99.90
33095;DHT22;19459;53.044;8.910;2023-11-18T14:58:49;6.40;99.90
33095;DHT22;19459;53.044;8.910;2023-11-18T15:01:18;6.30;99.90
33095;DHT22;19459;53.044;8.910;2023-11-18T15:03:45;6.30;99.90
33095;DHT22;19459;53.044;8.910;2023-11-18T15:06:13;6.30;99.90
33095;DHT22;19459;53.044;8.910;2023-11-18T15:08:41;6.20;99.90
33095;DHT22;19459;53.044;8.910;2023-11-18T15:11:07;6.20;99.90
33095;DHT22;19459;53.044;8.910;2023-11-18T15:13:32;6.20;99.90
33095;DHT22;19459;53.044;8.910;2023-11-18T15:15:58;6.20;99.90
33095;DHT22;19459;53.044;8.910;2023-11-18T15:18:24;6.20;99.90
33095;DHT22;19459;53.044;8.910;2023-11-18T15:20:50;6.20;99.90
33095;DHT22;19459;53.044;8.910;2023-11-18T15:23:17;6.20;99.90
33095;DHT22;19459;53.044;8.910;2023-11-18T15:25:47;6.20;99.90
33095;DHT22;19459;53.044;8.910;2023-11-18T15:28:15;6.20;99.90
33095;DHT22;19459;53.044;8.910;2023-11-18T15:30:42;6.20;99.90
33095;DHT22;19459;53.044;8.910;2023-11-18T15:33:09;6.10;99.90
33095;DHT22;19459;53.044;8.910;2023-11-18T15:35:36;6.10;99.90
33095;DHT22;19459;53.044;8.910;2023-11-18T15:38:08;6.10;99.90
33095;DHT22;19459;53.044;8.910;2023-11-18T15:40:35;6.10;99.90
33095;DHT22;19459;53.044;8.910;2023-11-18T15:43:03;6.10;99.90
33095;DHT22;19459;53.044;8.910;2023-11-18T15:45:32;6.00;99.90
33095;DHT22;19459;53.044;8.910;2023-11-18T15:47:58;6.10;99.90
33095;DHT22;19459;53.044;8.910;2023-11-18T15:50:31;6.00;99.90
33095;DHT22;19459;53.044;8.910;2023-11-18T15:52:57;6.00;99.90
33095;DHT22;19459;53.044;8.910;2023-11-18T15:55:23;6.00;99.90
33095;DHT22;19459;53.044;8.910;2023-11-18T15:57:52;6.00;99.90
33095;DHT22;19459;53.044;8.910;2023-11-18T16:00:19;6.00;99.90
33095;DHT22;19459;53.044;8.910;2023-11-18T16:02:49;6.00;99.90
33095;DHT22;19459;53.044;8.910;2023-11-18T16:05:18;6.00;99.90
33095;DHT22;19459;53.044;8.910;2023-11-18T16:07:47;6.00;99.90
33095;DHT22;19459;53.044;8.910;2023-11-18T16:10:16;6.00;99.90
33095;DHT22;19459;53.044;8.910;2023-11-18T16:12:56;6.00;99.90
33095;DHT22;19459;53.044;8.910;2023-11-18T16:15:26;6.00;99.90
33095;DHT22;19459;53.044;8.910;2023-11-18T16:17:54;6.00;99.90
33095;DHT22;19459;53.044;8.910;2023-11-18T16:20:24;6.00;99.90
33095;DHT22;19459;53.044;8.910;2023-11-18T16:22:54;6.00;99.90
33095;DHT22;19459;53.044;8.910;2023-11-18T16:25:21;5.90;99.90